createdAt,value
2022-12-23T00:00:17.763Z,238.75
2022-12-23T00:00:55.450Z,241.43
2022-12-23T00:01:29.015Z,236.05
2022-12-23T00:02:02.722Z,238.90
2022-12-23T00:02:36.289Z,243.00
2022-12-23T00:03:10.603Z,252.68
2022-12-23T00:03:44.482Z,244.30
2022-12-23T00:04:18.443Z,222.25
2022-12-23T00:04:51.789Z,237.23
2022-12-23T00:05:25.072Z,231.88
2022-12-23T00:05:58.963Z,241.38
2022-12-23T00:06:32.379Z,240.73
2022-12-23T00:07:05.631Z,251.95
2022-12-23T00:07:38.907Z,245.77
2022-12-23T00:08:11.988Z,240.45
2022-12-23T00:08:45.266Z,237.55
2022-12-23T00:09:18.446Z,247.45
2022-12-23T00:09:51.720Z,239.68
2022-12-23T00:10:25.103Z,237.65
2022-12-23T00:10:58.601Z,234.95
2022-12-23T00:11:31.959Z,244.07
2022-12-23T00:12:23.899Z,243.57
2022-12-23T00:13:15.366Z,235.13
2022-12-23T00:14:07.105Z,238.98
2022-12-23T00:14:59.126Z,251.73
2022-12-23T00:15:32.405Z,250.63
2022-12-23T00:16:06.966Z,250.13
2022-12-23T00:16:40.227Z,236.90
2022-12-23T00:17:29.159Z,241.73
2022-12-23T00:18:02.420Z,251.13
2022-12-23T00:18:36.112Z,240.40
2022-12-23T00:19:09.393Z,257.23
2022-12-23T00:19:42.682Z,250.75
2022-12-23T00:20:16.155Z,243.48
2022-12-23T00:20:49.639Z,240.55
2022-12-23T00:21:23.032Z,240.93
2022-12-23T00:21:56.304Z,239.35
2022-12-23T00:22:47.822Z,232.30
2022-12-23T00:23:21.200Z,240.77
2022-12-23T00:23:54.680Z,250.73
2022-12-23T00:24:27.858Z,241.52
2022-12-23T00:25:01.140Z,243.60
2022-12-23T00:25:40.830Z,236.13
2022-12-23T00:26:47.124Z,245.80
2022-12-23T00:27:20.817Z,248.07
2022-12-23T00:28:03.128Z,245.77
2022-12-23T00:28:36.491Z,245.57
2022-12-23T00:29:09.764Z,246.38
2022-12-23T00:29:43.254Z,241.07
2022-12-23T00:30:16.442Z,245.05
2022-12-23T00:30:53.919Z,242.55
2022-12-23T00:31:27.165Z,243.80
2022-12-23T00:32:00.551Z,244.38
2022-12-23T00:32:33.990Z,248.18
2022-12-23T00:33:07.434Z,247.05
2022-12-23T00:33:44.923Z,247.48
2022-12-23T00:34:17.994Z,248.35
2022-12-23T00:34:51.389Z,250.05
2022-12-23T00:35:24.451Z,244.68
2022-12-23T00:35:57.646Z,243.35
2022-12-23T00:36:31.172Z,244.00
2022-12-23T00:37:04.702Z,245.88
2022-12-23T00:37:38.196Z,248.52
2022-12-23T00:38:11.463Z,243.15
2022-12-23T00:39:04.929Z,237.98
2022-12-23T00:40:02.606Z,245.55
2022-12-23T00:40:57.670Z,249.68
2022-12-23T00:41:49.074Z,242.95
2022-12-23T00:42:40.370Z,243.60
2022-12-23T00:43:13.558Z,257.05
2022-12-23T00:43:47.034Z,251.73
2022-12-23T00:44:20.320Z,249.63
2022-12-23T00:44:53.594Z,250.60
2022-12-23T00:45:26.790Z,247.00
2022-12-23T00:46:00.445Z,248.52
2022-12-23T00:46:33.755Z,246.93
2022-12-23T00:47:07.123Z,248.50
2022-12-23T00:47:58.673Z,247.63
2022-12-23T00:48:50.548Z,253.20
2022-12-23T00:49:42.272Z,266.95
2022-12-23T00:50:15.640Z,260.00
2022-12-23T00:50:51.690Z,254.57
2022-12-23T00:51:24.965Z,256.02
2022-12-23T00:51:58.864Z,242.55
2022-12-23T00:52:32.349Z,250.45
2022-12-23T00:53:06.678Z,247.75
2022-12-23T00:53:39.830Z,244.13
2022-12-23T00:54:13.113Z,247.55
2022-12-23T00:54:46.389Z,246.82
2022-12-23T00:55:20.083Z,251.50
2022-12-23T00:55:53.156Z,241.30
2022-12-23T00:56:26.540Z,246.20
2022-12-23T00:57:00.637Z,250.00
2022-12-23T00:57:33.978Z,248.20
2022-12-23T00:58:07.507Z,238.82
2022-12-23T00:58:40.917Z,249.77
2022-12-23T00:59:14.175Z,250.40
2022-12-23T00:59:47.559Z,239.55
2022-12-23T01:00:21.135Z,244.85
2022-12-23T01:01:13.015Z,248.85
2022-12-23T01:02:04.724Z,250.75
2022-12-23T01:02:56.695Z,252.82
2022-12-23T01:03:49.628Z,258.40
2022-12-23T01:04:41.747Z,253.75
2022-12-23T01:05:33.782Z,251.15
2022-12-23T01:06:07.050Z,252.57
2022-12-23T01:06:40.634Z,253.02
2022-12-23T01:07:13.915Z,254.57
2022-12-23T01:07:47.193Z,254.23
2022-12-23T01:08:20.369Z,247.82
2022-12-23T01:08:53.675Z,246.23
2022-12-23T01:09:27.137Z,248.32
2022-12-23T01:10:00.515Z,245.32
2022-12-23T01:10:35.651Z,244.07
2022-12-23T01:11:10.052Z,251.23
2022-12-23T01:11:43.533Z,250.23
2022-12-23T01:12:16.821Z,242.40
2022-12-23T01:12:50.197Z,245.70
2022-12-23T01:13:23.481Z,248.60
2022-12-23T01:13:56.887Z,242.70
2022-12-23T01:14:30.141Z,240.65
2022-12-23T01:15:03.520Z,237.50
2022-12-23T01:15:36.809Z,246.77
2022-12-23T01:16:16.851Z,239.93
2022-12-23T01:16:51.164Z,249.93
2022-12-23T01:17:24.588Z,246.32
2022-12-23T01:17:57.912Z,242.40
2022-12-23T01:18:31.289Z,247.05
2022-12-23T01:19:05.195Z,249.45
2022-12-23T01:19:38.511Z,248.88
2022-12-23T01:20:12.363Z,246.23
2022-12-23T01:20:45.762Z,245.27
2022-12-23T01:21:19.124Z,247.38
2022-12-23T01:21:52.307Z,247.93
2022-12-23T01:22:25.589Z,243.88
2022-12-23T01:22:58.767Z,235.70
2022-12-23T01:23:32.662Z,245.95
2022-12-23T01:24:05.936Z,238.68
2022-12-23T01:24:39.125Z,243.15
2022-12-23T01:25:12.396Z,248.52
2022-12-23T01:25:45.907Z,244.95
2022-12-23T01:26:19.268Z,245.65
2022-12-23T01:26:52.648Z,246.48
2022-12-23T01:27:25.925Z,246.55
2022-12-23T01:27:59.317Z,245.45
2022-12-23T01:28:33.306Z,240.32
2022-12-23T01:29:06.600Z,246.27
2022-12-23T01:29:39.971Z,235.55
2022-12-23T01:30:13.349Z,242.55
2022-12-23T01:30:46.426Z,232.43
2022-12-23T01:31:19.912Z,233.20
2022-12-23T01:31:53.144Z,236.88
2022-12-23T01:32:26.469Z,244.85
2022-12-23T01:32:59.856Z,242.48
2022-12-23T01:33:33.747Z,240.52
2022-12-23T01:34:07.136Z,246.30
2022-12-23T01:34:40.619Z,244.63
2022-12-23T01:35:13.710Z,242.55
2022-12-23T01:35:47.076Z,240.57
2022-12-23T01:36:21.177Z,240.88
2022-12-23T01:36:54.558Z,242.27
2022-12-23T01:37:27.937Z,243.00
2022-12-23T01:38:01.241Z,235.35
2022-12-23T01:38:34.906Z,246.07
2022-12-23T01:39:08.390Z,240.55
2022-12-23T01:39:41.680Z,239.95
2022-12-23T01:40:15.055Z,235.43
2022-12-23T01:40:48.442Z,238.35
2022-12-23T01:41:43.835Z,243.98
2022-12-23T01:42:36.748Z,248.73
2022-12-23T01:43:16.923Z,250.02
2022-12-23T01:43:51.430Z,240.40
2022-12-23T01:44:43.445Z,244.57
2022-12-23T01:45:16.733Z,245.35
2022-12-23T01:45:50.276Z,245.20
2022-12-23T01:46:23.775Z,244.60
2022-12-23T01:46:57.282Z,242.77
2022-12-23T01:47:30.769Z,243.80
2022-12-23T01:48:10.499Z,239.82
2022-12-23T01:48:49.718Z,241.73
2022-12-23T01:49:23.003Z,248.30
2022-12-23T01:50:00.686Z,242.50
2022-12-23T01:50:54.354Z,248.13
2022-12-23T01:51:28.850Z,247.63
2022-12-23T01:52:02.653Z,246.88
2022-12-23T01:52:39.096Z,244.00
2022-12-23T01:53:13.912Z,245.15
2022-12-23T01:53:49.661Z,248.52
2022-12-23T01:54:22.934Z,243.48
2022-12-23T01:54:56.728Z,245.30
2022-12-23T01:55:31.026Z,244.35
2022-12-23T01:56:19.670Z,241.98
2022-12-23T01:56:53.055Z,248.07
2022-12-23T01:57:26.639Z,238.88
2022-12-23T01:58:05.958Z,242.20
2022-12-23T01:58:40.984Z,246.60
2022-12-23T01:59:38.542Z,248.07
2022-12-23T02:00:30.348Z,250.43
2022-12-23T02:01:22.006Z,249.93
2022-12-23T02:02:14.210Z,249.38
2022-12-23T02:03:07.418Z,252.02
2022-12-23T02:03:43.448Z,251.38
2022-12-23T02:04:19.107Z,251.07
2022-12-23T02:04:52.803Z,246.80
2022-12-23T02:05:25.982Z,248.23
2022-12-23T02:06:18.915Z,249.15
2022-12-23T02:07:11.626Z,250.63
2022-12-23T02:08:03.671Z,250.70
2022-12-23T02:08:55.284Z,251.52
2022-12-23T02:09:30.005Z,251.40
2022-12-23T02:10:03.788Z,251.80
2022-12-23T02:10:45.265Z,246.45
2022-12-23T02:11:28.574Z,248.15
2022-12-23T02:12:01.758Z,248.75
2022-12-23T02:12:54.999Z,250.55
2022-12-23T02:13:37.398Z,250.25
2022-12-23T02:14:29.114Z,250.98
2022-12-23T02:15:40.068Z,253.50
2022-12-23T02:16:17.800Z,255.23
2022-12-23T02:16:54.233Z,254.90
2022-12-23T02:17:45.633Z,251.57
2022-12-23T02:18:18.800Z,255.05
2022-12-23T02:19:10.302Z,252.02
2022-12-23T02:20:01.740Z,256.75
2022-12-23T02:20:53.415Z,252.70
2022-12-23T02:21:32.225Z,255.52
2022-12-23T02:22:13.912Z,257.40
2022-12-23T02:22:59.179Z,255.20
2022-12-23T02:23:47.400Z,255.40
2022-12-23T02:24:55.810Z,257.35
2022-12-23T02:25:37.374Z,258.30
2022-12-23T02:26:10.554Z,258.17
2022-12-23T02:27:12.926Z,256.85
2022-12-23T02:27:49.062Z,258.73
2022-12-23T02:28:41.183Z,257.17
2022-12-23T02:29:20.304Z,264.50
2022-12-23T02:30:12.013Z,264.85
2022-12-23T02:30:49.397Z,266.73
2022-12-23T02:31:25.799Z,264.25
2022-12-23T02:32:01.174Z,265.52
2022-12-23T02:32:44.080Z,264.92
2022-12-23T02:33:31.517Z,263.05
2022-12-23T02:34:23.098Z,265.08
2022-12-23T02:35:08.868Z,262.75
2022-12-23T02:35:42.051Z,264.88
2022-12-23T02:36:22.608Z,261.05
2022-12-23T02:36:55.878Z,262.98
2022-12-23T02:37:44.414Z,268.77
2022-12-23T02:38:20.258Z,270.70
2022-12-23T02:39:22.518Z,269.92
2022-12-23T02:39:58.671Z,267.15
2022-12-23T02:40:34.820Z,262.58
2022-12-23T02:41:11.072Z,262.45
2022-12-23T02:41:52.538Z,262.48
2022-12-23T02:42:25.923Z,263.75
2022-12-23T02:42:58.895Z,261.65
2022-12-23T02:43:38.421Z,255.43
2022-12-23T02:44:21.939Z,255.32
2022-12-23T02:45:00.644Z,259.48
2022-12-23T02:45:36.689Z,258.42
2022-12-23T02:46:13.104Z,252.73
2022-12-23T02:46:47.960Z,253.48
2022-12-23T02:47:23.796Z,249.85
2022-12-23T02:47:58.721Z,248.77
2022-12-23T02:48:32.095Z,249.15
2022-12-23T02:49:05.484Z,241.05
2022-12-23T02:49:43.886Z,247.52
2022-12-23T02:50:22.383Z,248.80
2022-12-23T02:50:57.204Z,250.80
2022-12-23T02:51:33.870Z,243.38
2022-12-23T02:52:11.418Z,244.73
2022-12-23T02:52:47.015Z,241.27
2022-12-23T02:53:23.681Z,236.00
2022-12-23T02:53:58.653Z,245.43
2022-12-23T02:54:33.267Z,247.57
2022-12-23T02:55:09.317Z,248.60
2022-12-23T02:55:44.647Z,251.70
2022-12-23T02:56:18.845Z,247.02
2022-12-23T02:56:53.450Z,240.00
2022-12-23T02:57:29.597Z,244.18
2022-12-23T02:58:05.448Z,247.65
2022-12-23T02:58:41.996Z,241.00
2022-12-23T02:59:17.440Z,247.38
2022-12-23T02:59:51.630Z,243.25
2022-12-23T03:00:25.118Z,237.43
2022-12-23T03:01:00.652Z,244.15
2022-12-23T03:01:34.307Z,247.88
2022-12-23T03:02:07.913Z,243.45
2022-12-23T03:02:42.748Z,245.18
2022-12-23T03:03:17.693Z,246.60
2022-12-23T03:03:51.717Z,242.50
2022-12-23T03:04:24.834Z,237.68
2022-12-23T03:05:00.832Z,246.50
2022-12-23T03:05:39.583Z,246.15
2022-12-23T03:06:23.520Z,246.20
2022-12-23T03:07:02.965Z,249.48
2022-12-23T03:07:42.260Z,255.73
2022-12-23T03:08:17.489Z,250.35
2022-12-23T03:08:53.125Z,255.70
2022-12-23T03:09:33.682Z,252.52
2022-12-23T03:10:10.024Z,246.82
2022-12-23T03:10:43.204Z,251.90
2022-12-23T03:11:17.623Z,253.60
2022-12-23T03:11:56.931Z,254.75
2022-12-23T03:12:30.213Z,261.48
2022-12-23T03:13:12.299Z,254.88
2022-12-23T03:13:45.370Z,259.58
2022-12-23T03:14:18.658Z,255.88
2022-12-23T03:15:07.093Z,252.30
2022-12-23T03:15:56.127Z,259.63
2022-12-23T03:16:41.298Z,253.27
2022-12-23T03:17:21.750Z,257.38
2022-12-23T03:18:20.522Z,253.05
2022-12-23T03:18:56.570Z,255.63
2022-12-23T03:19:38.764Z,251.75
2022-12-23T03:20:21.667Z,256.20
2022-12-23T03:20:57.611Z,254.63
2022-12-23T03:21:34.988Z,252.40
2022-12-23T03:22:20.344Z,250.05
2022-12-23T03:22:59.466Z,251.50
2022-12-23T03:23:39.501Z,251.18
2022-12-23T03:24:50.772Z,255.55
2022-12-23T03:25:36.240Z,253.75
2022-12-23T03:26:17.609Z,251.55
2022-12-23T03:26:55.801Z,250.00
2022-12-23T03:27:51.825Z,254.68
2022-12-23T03:28:27.868Z,254.45
2022-12-23T03:29:04.731Z,253.63
2022-12-23T03:29:44.871Z,247.32
2022-12-23T03:30:19.480Z,248.10
2022-12-23T03:30:54.691Z,249.23
2022-12-23T03:31:30.264Z,246.13
2022-12-23T03:32:04.745Z,248.52
2022-12-23T03:32:41.920Z,251.27
2022-12-23T03:33:17.348Z,241.05
2022-12-23T03:33:54.543Z,249.38
2022-12-23T03:34:30.682Z,246.48
2022-12-23T03:35:06.619Z,247.38
2022-12-23T03:36:08.975Z,249.10
2022-12-23T03:36:48.094Z,250.90
2022-12-23T03:37:22.305Z,250.93
2022-12-23T03:37:56.901Z,250.13
2022-12-23T03:38:32.843Z,244.35
2022-12-23T03:39:07.622Z,250.32
2022-12-23T03:39:47.594Z,247.90
2022-12-23T03:40:25.589Z,251.02
2022-12-23T03:41:01.432Z,247.15
2022-12-23T03:41:36.958Z,244.07
2022-12-23T03:42:18.747Z,244.45
2022-12-23T03:42:56.017Z,244.30
2022-12-23T03:43:48.392Z,246.98
2022-12-23T03:45:03.623Z,248.15
2022-12-23T03:45:43.952Z,252.27
2022-12-23T03:46:19.910Z,254.32
2022-12-23T03:46:55.896Z,250.55
2022-12-23T03:47:32.401Z,249.30
2022-12-23T03:48:09.973Z,250.15
2022-12-23T03:48:49.501Z,248.15
2022-12-23T03:49:29.747Z,243.82
2022-12-23T03:50:08.449Z,247.30
2022-12-23T03:50:43.386Z,250.50
2022-12-23T03:51:19.013Z,242.27
2022-12-23T03:52:01.908Z,250.50
2022-12-23T03:52:39.195Z,249.68
2022-12-23T03:53:28.232Z,246.57
2022-12-23T03:54:04.481Z,248.43
2022-12-23T03:54:40.428Z,241.57
2022-12-23T03:55:18.005Z,247.63
2022-12-23T03:55:54.972Z,249.68
2022-12-23T03:56:40.240Z,246.38
2022-12-23T03:57:14.541Z,251.25
2022-12-23T03:58:06.152Z,239.77
2022-12-23T03:59:05.234Z,250.73
2022-12-23T03:59:51.107Z,248.57
2022-12-23T04:00:24.494Z,244.80
2022-12-23T04:01:06.001Z,249.18
2022-12-23T04:01:44.462Z,245.43
2022-12-23T04:02:53.453Z,245.80
2022-12-23T04:03:34.016Z,250.92
2022-12-23T04:04:11.674Z,245.07
2022-12-23T04:04:54.115Z,246.80
2022-12-23T04:05:28.635Z,249.20
2022-12-23T04:06:03.030Z,246.75
2022-12-23T04:06:59.253Z,247.55
2022-12-23T04:07:37.953Z,248.93
2022-12-23T04:08:16.662Z,243.13
2022-12-23T04:08:50.461Z,247.73
2022-12-23T04:09:25.372Z,249.32
2022-12-23T04:09:59.372Z,244.60
2022-12-23T04:10:32.760Z,242.43
2022-12-23T04:11:06.133Z,241.60
2022-12-23T04:11:39.415Z,239.05
2022-12-23T04:12:14.536Z,236.18
2022-12-23T04:12:48.436Z,235.77
2022-12-23T04:13:21.710Z,245.35
2022-12-23T04:13:55.113Z,239.38
2022-12-23T04:14:28.395Z,242.85
2022-12-23T04:15:04.820Z,239.98
2022-12-23T04:15:41.831Z,233.63
2022-12-23T04:16:15.450Z,238.10
2022-12-23T04:16:49.795Z,236.23
2022-12-23T04:17:23.277Z,239.25
2022-12-23T04:17:57.997Z,234.65
2022-12-23T04:18:31.485Z,236.80
2022-12-23T04:19:04.858Z,239.43
2022-12-23T04:19:38.041Z,234.25
2022-12-23T04:20:11.531Z,232.93
2022-12-23T04:20:45.110Z,242.52
2022-12-23T04:21:18.488Z,233.23
2022-12-23T04:21:51.780Z,233.40
2022-12-23T04:22:25.150Z,229.73
2022-12-23T04:22:58.532Z,232.43
2022-12-23T04:23:31.713Z,229.40
2022-12-23T04:24:05.015Z,243.27
2022-12-23T04:24:38.680Z,235.80
2022-12-23T04:25:12.985Z,234.57
2022-12-23T04:25:46.375Z,244.25
2022-12-23T04:26:19.549Z,230.80
2022-12-23T04:26:52.827Z,240.23
2022-12-23T04:27:26.109Z,241.50
2022-12-23T04:27:59.314Z,242.43
2022-12-23T04:28:32.565Z,237.20
2022-12-23T04:29:05.951Z,234.00
2022-12-23T04:29:39.235Z,228.80
2022-12-23T04:30:14.454Z,237.27
2022-12-23T04:30:47.737Z,229.15
2022-12-23T04:31:20.977Z,242.80
2022-12-23T04:31:54.411Z,234.40
2022-12-23T04:32:27.879Z,237.80
2022-12-23T04:33:01.264Z,240.63
2022-12-23T04:33:34.440Z,242.15
2022-12-23T04:34:07.785Z,236.43
2022-12-23T04:34:41.106Z,228.75
2022-12-23T04:35:14.899Z,236.05
2022-12-23T04:35:48.185Z,241.00
2022-12-23T04:36:21.460Z,232.32
2022-12-23T04:36:54.841Z,233.23
2022-12-23T04:37:28.224Z,240.80
2022-12-23T04:38:01.607Z,242.68
2022-12-23T04:38:34.890Z,240.43
2022-12-23T04:39:08.477Z,234.75
2022-12-23T04:39:41.955Z,230.27
2022-12-23T04:40:15.252Z,235.20
2022-12-23T04:40:49.140Z,233.27
2022-12-23T04:41:22.312Z,232.63
2022-12-23T04:41:55.703Z,232.35
2022-12-23T04:42:29.178Z,233.57
2022-12-23T04:43:02.570Z,230.52
2022-12-23T04:43:35.640Z,231.50
2022-12-23T04:44:09.120Z,231.50
2022-12-23T04:44:42.314Z,231.75
2022-12-23T04:45:15.686Z,242.55
2022-12-23T04:45:52.353Z,240.05
2022-12-23T04:46:25.565Z,239.27
2022-12-23T04:46:58.893Z,242.18
2022-12-23T04:47:32.086Z,233.77
2022-12-23T04:48:05.562Z,231.13
2022-12-23T04:48:38.849Z,244.45
2022-12-23T04:49:12.122Z,239.15
2022-12-23T04:49:45.614Z,240.80
2022-12-23T04:50:19.109Z,239.45
2022-12-23T04:50:52.274Z,236.90
2022-12-23T04:51:25.654Z,242.55
2022-12-23T04:51:59.243Z,247.60
2022-12-23T04:52:32.631Z,241.65
2022-12-23T04:53:05.802Z,237.25
2022-12-23T04:53:39.707Z,243.23
2022-12-23T04:54:12.981Z,239.95
2022-12-23T04:54:46.706Z,240.60
2022-12-23T04:55:20.162Z,242.23
2022-12-23T04:55:53.333Z,236.57
2022-12-23T04:56:26.606Z,242.95
2022-12-23T04:57:00.399Z,238.65
2022-12-23T04:57:33.783Z,238.07
2022-12-23T04:58:07.268Z,233.05
2022-12-23T04:58:40.547Z,241.35
2022-12-23T04:59:13.929Z,237.77
2022-12-23T04:59:47.313Z,243.20
2022-12-23T05:00:20.852Z,235.13
2022-12-23T05:01:14.361Z,230.18
2022-12-23T05:01:48.019Z,243.88
2022-12-23T05:02:21.448Z,245.23
2022-12-23T05:02:55.327Z,245.15
2022-12-23T05:03:28.770Z,236.65
2022-12-23T05:04:02.090Z,242.20
2022-12-23T05:04:35.626Z,239.18
2022-12-23T05:05:09.220Z,243.40
2022-12-23T05:05:45.515Z,236.20
2022-12-23T05:06:18.899Z,239.90
2022-12-23T05:06:52.075Z,240.65
2022-12-23T05:07:25.662Z,234.13
2022-12-23T05:08:05.595Z,240.63
2022-12-23T05:08:38.810Z,247.10
2022-12-23T05:09:12.265Z,245.38
2022-12-23T05:09:45.640Z,237.07
2022-12-23T05:10:19.023Z,242.85
2022-12-23T05:10:52.104Z,231.38
2022-12-23T05:11:25.382Z,234.88
2022-12-23T05:11:58.559Z,238.38
2022-12-23T05:12:32.049Z,238.50
2022-12-23T05:13:05.426Z,243.57
2022-12-23T05:13:38.711Z,241.55
2022-12-23T05:14:12.188Z,245.00
2022-12-23T05:14:45.585Z,236.30
2022-12-23T05:15:18.758Z,241.52
2022-12-23T05:15:53.015Z,241.00
2022-12-23T05:16:26.587Z,241.80
2022-12-23T05:17:06.966Z,242.73
2022-12-23T05:17:41.011Z,244.23
2022-12-23T05:18:14.263Z,245.13
2022-12-23T05:18:47.645Z,250.68
2022-12-23T05:19:21.135Z,237.55
2022-12-23T05:19:54.513Z,239.27
2022-12-23T05:20:27.692Z,244.45
2022-12-23T05:21:01.003Z,243.07
2022-12-23T05:21:34.563Z,239.80
2022-12-23T05:22:08.057Z,236.52
2022-12-23T05:22:41.226Z,242.60
2022-12-23T05:23:14.535Z,239.55
2022-12-23T05:23:47.888Z,231.02
2022-12-23T05:24:21.275Z,243.95
2022-12-23T05:24:54.549Z,239.88
2022-12-23T05:25:27.831Z,238.10
2022-12-23T05:26:01.213Z,234.98
2022-12-23T05:26:34.518Z,241.90
2022-12-23T05:27:07.873Z,235.65
2022-12-23T05:27:41.257Z,238.65
2022-12-23T05:28:14.537Z,237.38
2022-12-23T05:28:47.923Z,238.00
2022-12-23T05:29:21.299Z,233.82
2022-12-23T05:29:54.592Z,239.38
2022-12-23T05:30:27.969Z,243.63
2022-12-23T05:31:02.481Z,275.40
2022-12-23T05:31:35.988Z,276.98
2022-12-23T05:32:09.449Z,262.85
2022-12-23T05:32:42.622Z,257.95
2022-12-23T05:33:16.350Z,269.80
2022-12-23T05:33:50.026Z,257.67
2022-12-23T05:34:23.291Z,251.95
2022-12-23T05:34:56.772Z,258.38
2022-12-23T05:35:30.258Z,261.85
2022-12-23T05:36:03.771Z,255.75
2022-12-23T05:36:37.226Z,253.82
2022-12-23T05:37:10.604Z,261.55
2022-12-23T05:37:43.997Z,250.60
2022-12-23T05:38:17.268Z,254.88
2022-12-23T05:38:50.445Z,254.88
2022-12-23T05:39:23.827Z,243.77
2022-12-23T05:39:57.309Z,247.00
2022-12-23T05:40:31.855Z,244.07
2022-12-23T05:41:06.535Z,236.30
2022-12-23T05:41:39.936Z,240.98
2022-12-23T05:42:13.401Z,243.65
2022-12-23T05:42:46.990Z,245.80
2022-12-23T05:43:20.164Z,244.23
2022-12-23T05:43:53.447Z,242.77
2022-12-23T05:44:26.624Z,247.85
2022-12-23T05:45:00.115Z,240.07
2022-12-23T05:45:36.002Z,232.50
2022-12-23T05:46:09.485Z,244.05
2022-12-23T05:46:43.020Z,244.43
2022-12-23T05:47:16.407Z,235.35
2022-12-23T05:47:49.886Z,243.18
2022-12-23T05:48:23.372Z,244.75
2022-12-23T05:48:56.857Z,232.55
2022-12-23T05:49:30.346Z,245.30
2022-12-23T05:50:04.035Z,234.32
2022-12-23T05:50:38.151Z,235.77
2022-12-23T05:51:11.412Z,241.05
2022-12-23T05:51:44.693Z,234.45
2022-12-23T05:52:17.875Z,241.20
2022-12-23T05:52:51.051Z,241.82
2022-12-23T05:53:25.261Z,243.70
2022-12-23T05:53:58.648Z,240.57
2022-12-23T05:54:32.019Z,247.32
2022-12-23T05:55:05.813Z,241.23
2022-12-23T05:55:38.886Z,243.52
2022-12-23T05:56:12.471Z,242.90
2022-12-23T05:56:45.750Z,235.07
2022-12-23T05:57:19.132Z,235.77
2022-12-23T05:57:53.026Z,237.98
2022-12-23T05:58:28.460Z,244.32
2022-12-23T05:59:02.067Z,244.25
2022-12-23T05:59:35.230Z,248.65
2022-12-23T06:00:08.815Z,238.70
2022-12-23T06:00:45.511Z,245.43
2022-12-23T06:01:18.864Z,239.68
2022-12-23T06:01:52.211Z,239.40
2022-12-23T06:02:25.873Z,249.73
2022-12-23T06:02:59.363Z,245.32
2022-12-23T06:03:33.120Z,246.18
2022-12-23T06:04:06.616Z,243.38
2022-12-23T06:04:39.867Z,239.95
2022-12-23T06:05:13.607Z,248.07
2022-12-23T06:05:50.638Z,244.70
2022-12-23T06:06:24.010Z,242.85
2022-12-23T06:06:57.592Z,236.90
2022-12-23T06:07:30.791Z,240.57
2022-12-23T06:08:04.263Z,237.88
2022-12-23T06:08:37.843Z,245.98
2022-12-23T06:09:11.331Z,244.13
2022-12-23T06:09:44.661Z,231.43
2022-12-23T06:10:18.221Z,235.35
2022-12-23T06:10:51.580Z,247.63
2022-12-23T06:11:24.757Z,234.13
2022-12-23T06:11:58.151Z,240.45
2022-12-23T06:12:31.323Z,244.95
2022-12-23T06:13:04.711Z,243.38
2022-12-23T06:13:38.081Z,246.98
2022-12-23T06:14:11.469Z,230.82
2022-12-23T06:14:44.647Z,245.60
2022-12-23T06:15:17.995Z,242.50
2022-12-23T06:15:51.305Z,241.88
2022-12-23T06:16:24.834Z,242.27
2022-12-23T06:16:58.317Z,243.07
2022-12-23T06:17:31.560Z,238.98
2022-12-23T06:18:05.043Z,244.52
2022-12-23T06:18:38.424Z,241.05
2022-12-23T06:19:11.701Z,239.60
2022-12-23T06:19:44.888Z,241.40
2022-12-23T06:20:20.816Z,231.90
2022-12-23T06:20:54.414Z,241.85
2022-12-23T06:21:27.797Z,230.30
2022-12-23T06:22:01.197Z,241.07
2022-12-23T06:22:34.463Z,229.57
2022-12-23T06:23:07.747Z,240.60
2022-12-23T06:23:40.827Z,229.63
2022-12-23T06:24:14.099Z,234.55
2022-12-23T06:24:47.375Z,236.82
2022-12-23T06:25:20.961Z,235.45
2022-12-23T06:26:00.896Z,230.35
2022-12-23T06:26:36.437Z,237.45
2022-12-23T06:27:09.814Z,225.02
2022-12-23T06:27:43.300Z,236.50
2022-12-23T06:28:16.985Z,239.05
2022-12-23T06:28:50.366Z,231.98
2022-12-23T06:29:23.769Z,232.27
2022-12-23T06:29:57.140Z,238.05
2022-12-23T06:30:30.421Z,230.32
2022-12-23T06:31:03.814Z,227.82
2022-12-23T06:31:37.109Z,223.60
2022-12-23T06:32:10.688Z,221.13
2022-12-23T06:32:43.951Z,223.73
2022-12-23T06:33:17.228Z,232.38
2022-12-23T06:33:50.511Z,226.30
2022-12-23T06:34:23.788Z,227.05
2022-12-23T06:34:57.270Z,222.07
2022-12-23T06:35:30.345Z,238.55
2022-12-23T06:36:03.734Z,230.40
2022-12-23T06:36:36.812Z,234.93
2022-12-23T06:37:10.082Z,228.38
2022-12-23T06:37:43.174Z,234.88
2022-12-23T06:38:16.543Z,228.15
2022-12-23T06:38:49.925Z,223.50
2022-12-23T06:39:23.207Z,228.25
2022-12-23T06:39:56.494Z,229.75
2022-12-23T06:40:30.479Z,229.90
2022-12-23T06:41:03.963Z,231.93
2022-12-23T06:41:37.256Z,236.93
2022-12-23T06:42:10.428Z,232.30
2022-12-23T06:42:43.912Z,236.45
2022-12-23T06:43:17.498Z,227.02
2022-12-23T06:43:54.263Z,230.57
2022-12-23T06:44:27.978Z,234.38
2022-12-23T06:45:01.531Z,231.93
2022-12-23T06:45:34.739Z,231.02
2022-12-23T06:46:08.105Z,236.98
2022-12-23T06:46:41.502Z,233.27
2022-12-23T06:47:14.861Z,236.82
2022-12-23T06:47:48.252Z,225.57
2022-12-23T06:48:21.429Z,228.77
2022-12-23T06:48:54.704Z,236.32
2022-12-23T06:49:28.085Z,231.23
2022-12-23T06:50:01.371Z,238.75
2022-12-23T06:50:34.865Z,233.82
2022-12-23T06:51:08.233Z,229.07
2022-12-23T06:51:41.511Z,226.20
2022-12-23T06:52:14.794Z,228.05
2022-12-23T06:52:49.508Z,227.13
2022-12-23T06:53:22.687Z,223.35
2022-12-23T06:53:55.864Z,224.35
2022-12-23T06:54:29.139Z,232.38
2022-12-23T06:55:02.336Z,236.32
2022-12-23T06:55:36.054Z,228.13
2022-12-23T06:56:09.289Z,228.88
2022-12-23T06:56:42.581Z,236.25
2022-12-23T06:57:15.847Z,223.52
2022-12-23T06:57:49.130Z,229.68
2022-12-23T06:58:22.407Z,236.38
2022-12-23T06:58:55.795Z,235.02
2022-12-23T06:59:29.685Z,234.50
2022-12-23T07:00:03.697Z,237.70
2022-12-23T07:00:36.875Z,232.48
2022-12-23T07:01:10.427Z,221.45
2022-12-23T07:01:43.935Z,225.35
2022-12-23T07:02:17.631Z,238.90
2022-12-23T07:02:51.225Z,236.80
2022-12-23T07:03:24.748Z,237.52
2022-12-23T07:03:58.195Z,240.07
2022-12-23T07:04:31.571Z,236.00
2022-12-23T07:05:04.953Z,237.00
2022-12-23T07:05:38.230Z,245.52
2022-12-23T07:06:11.611Z,235.82
2022-12-23T07:06:44.892Z,238.07
2022-12-23T07:07:18.173Z,239.27
2022-12-23T07:07:51.360Z,234.55
2022-12-23T07:08:24.625Z,232.88
2022-12-23T07:08:58.423Z,227.15
2022-12-23T07:09:32.109Z,225.57
2022-12-23T07:10:05.506Z,229.60
2022-12-23T07:10:38.773Z,230.68
2022-12-23T07:11:11.947Z,224.88
2022-12-23T07:11:45.131Z,238.70
2022-12-23T07:12:18.517Z,248.20
2022-12-23T07:12:51.586Z,242.65
2022-12-23T07:13:25.083Z,245.63
2022-12-23T07:13:58.464Z,244.27
2022-12-23T07:14:31.841Z,247.95
2022-12-23T07:15:06.046Z,247.80
2022-12-23T07:15:39.827Z,244.70
2022-12-23T07:16:13.062Z,240.75
2022-12-23T07:16:46.960Z,230.82
2022-12-23T07:17:20.288Z,236.88
2022-12-23T07:17:54.807Z,243.55
2022-12-23T07:18:28.074Z,235.40
2022-12-23T07:19:01.252Z,246.45
2022-12-23T07:19:34.740Z,244.35
2022-12-23T07:20:08.337Z,240.95
2022-12-23T07:20:41.606Z,244.35
2022-12-23T07:21:24.640Z,238.13
2022-12-23T07:22:02.297Z,246.38
2022-12-23T07:22:35.689Z,242.55
2022-12-23T07:23:09.980Z,237.07
2022-12-23T07:23:43.056Z,238.50
2022-12-23T07:24:16.446Z,239.52
2022-12-23T07:24:49.624Z,237.40
2022-12-23T07:25:22.905Z,239.38
2022-12-23T07:25:57.614Z,230.25
2022-12-23T07:26:30.995Z,233.75
2022-12-23T07:27:04.578Z,234.77
2022-12-23T07:27:38.064Z,234.02
2022-12-23T07:28:11.251Z,240.10
2022-12-23T07:28:48.429Z,236.35
2022-12-23T07:29:21.710Z,243.68
2022-12-23T07:29:54.875Z,243.48
2022-12-23T07:30:29.593Z,232.65
2022-12-23T07:31:05.575Z,228.15
2022-12-23T07:31:41.113Z,235.00
2022-12-23T07:32:14.853Z,230.15